createdAt,value
2017-10-18T00:00:43.035Z,16.00
2017-10-18T00:01:43.749Z,18.00
2017-10-18T00:02:44.477Z,20.00
2017-10-18T00:03:45.193Z,17.00
2017-10-18T00:04:45.926Z,16.00
2017-10-18T00:05:46.634Z,19.00
2017-10-18T00:06:47.348Z,20.00
2017-10-18T00:07:48.079Z,16.00
2017-10-18T00:08:48.793Z,19.00
2017-10-18T00:09:49.505Z,16.00
2017-10-18T00:10:50.219Z,16.00
2017-10-18T00:11:50.934Z,15.00
2017-10-18T00:12:51.666Z,17.00
2017-10-18T00:13:52.372Z,14.00
2017-10-18T00:14:53.087Z,15.00
2017-10-18T00:15:53.802Z,16.00
2017-10-18T00:16:54.516Z,16.00
2017-10-18T00:17:55.227Z,16.00
2017-10-18T00:18:55.954Z,15.00
2017-10-18T00:19:56.669Z,13.00
2017-10-18T00:20:57.383Z,14.00
2017-10-18T00:21:58.096Z,16.00
2017-10-18T00:22:58.823Z,17.00
2017-10-18T00:23:59.537Z,15.00
2017-10-18T00:25:00.267Z,18.00
2017-10-18T00:26:01.233Z,15.00
2017-10-18T00:27:01.948Z,17.00
2017-10-18T00:28:02.662Z,16.00
2017-10-18T00:29:03.377Z,17.00
2017-10-18T00:30:04.105Z,18.00
2017-10-18T00:31:05.068Z,16.00
2017-10-18T00:32:05.795Z,15.00
2017-10-18T00:33:06.511Z,18.00
2017-10-18T00:34:07.226Z,18.00
2017-10-18T00:35:07.938Z,17.00
2017-10-18T00:36:08.664Z,17.00
2017-10-18T00:37:09.393Z,17.00
2017-10-18T00:38:10.120Z,18.00
2017-10-18T00:39:10.835Z,20.00
2017-10-18T00:40:11.547Z,16.00
2017-10-18T00:41:12.276Z,18.00
2017-10-18T00:42:12.990Z,15.00
2017-10-18T00:43:13.704Z,15.00
2017-10-18T00:44:14.415Z,14.00
2017-10-18T00:45:15.129Z,15.00
2017-10-18T00:46:15.843Z,18.00
2017-10-18T00:47:16.557Z,15.00
2017-10-18T00:48:17.269Z,17.00
2017-10-18T00:49:17.983Z,18.00
2017-10-18T00:50:18.696Z,17.00
2017-10-18T00:51:19.423Z,16.00
2017-10-18T00:52:20.136Z,16.00
2017-10-18T00:53:20.849Z,18.00
2017-10-18T00:54:21.561Z,16.00
2017-10-18T00:55:22.276Z,17.00
2017-10-18T00:56:22.990Z,16.00
2017-10-18T00:57:23.719Z,20.00
2017-10-18T00:58:24.446Z,17.00
2017-10-18T00:59:25.176Z,16.00
2017-10-18T01:00:25.891Z,16.00
2017-10-18T01:01:26.605Z,18.00
2017-10-18T01:02:27.334Z,18.00
2017-10-18T01:03:28.048Z,18.00
2017-10-18T01:04:28.776Z,17.00
2017-10-18T01:05:29.503Z,17.00
2017-10-18T01:06:30.215Z,15.00
2017-10-18T01:07:30.944Z,15.00
2017-10-18T01:08:31.659Z,17.00
2017-10-18T01:09:32.386Z,15.00
2017-10-18T01:10:33.115Z,14.00
2017-10-18T01:11:33.830Z,14.00
2017-10-18T01:12:34.557Z,16.00
2017-10-18T01:13:35.287Z,17.00
2017-10-18T01:14:36.015Z,15.00
2017-10-18T01:15:36.729Z,14.00
2017-10-18T01:16:37.443Z,15.00
2017-10-18T01:17:38.157Z,15.00
2017-10-18T01:18:38.869Z,14.00
2017-10-18T01:19:39.586Z,15.00
2017-10-18T01:20:40.301Z,15.00
2017-10-18T01:21:41.014Z,16.00
2017-10-18T01:22:41.728Z,12.00
2017-10-18T01:23:42.442Z,14.00
2017-10-18T01:24:43.156Z,17.00
2017-10-18T01:25:43.868Z,14.00
2017-10-18T01:26:44.597Z,14.00
2017-10-18T01:27:45.329Z,14.00
2017-10-18T01:28:46.039Z,15.00
2017-10-18T01:29:46.753Z,14.00
2017-10-18T01:30:47.465Z,13.00
2017-10-18T01:31:48.179Z,16.00
2017-10-18T01:32:48.892Z,14.00
2017-10-18T01:33:49.607Z,15.00
2017-10-18T01:34:50.321Z,15.00
2017-10-18T01:35:51.047Z,17.00
2017-10-18T01:36:51.760Z,15.00
2017-10-18T01:37:52.475Z,16.00
2017-10-18T01:38:53.187Z,17.00
2017-10-18T01:39:53.901Z,16.00
2017-10-18T01:40:54.613Z,17.00
2017-10-18T01:41:55.342Z,15.00
2017-10-18T01:42:56.055Z,15.00
2017-10-18T01:43:56.782Z,14.00
2017-10-18T01:44:57.495Z,15.00
2017-10-18T01:45:58.209Z,14.00
2017-10-18T01:46:58.924Z,15.00
2017-10-18T01:47:59.637Z,14.00
2017-10-18T01:49:00.352Z,12.00
2017-10-18T01:50:01.064Z,15.00
2017-10-18T01:51:01.778Z,14.00
2017-10-18T01:52:02.491Z,15.00
2017-10-18T01:53:03.207Z,15.00
2017-10-18T01:54:03.936Z,14.00
2017-10-18T01:55:04.648Z,14.00
2017-10-18T01:56:05.360Z,13.00
2017-10-18T01:57:06.086Z,14.00
2017-10-18T01:58:06.799Z,14.00
2017-10-18T01:59:07.514Z,12.00
2017-10-18T02:00:08.232Z,16.00
2017-10-18T02:01:08.954Z,17.00
2017-10-18T02:02:09.683Z,15.00
2017-10-18T02:03:10.395Z,15.00
2017-10-18T02:04:11.108Z,15.00
2017-10-18T02:05:11.819Z,15.00
2017-10-18T02:06:12.535Z,15.00
2017-10-18T02:07:13.250Z,16.00
2017-10-18T02:08:13.967Z,14.00
2017-10-18T02:09:14.676Z,13.00
2017-10-18T02:10:15.405Z,14.00
2017-10-18T02:11:16.126Z,14.00
2017-10-18T02:12:16.831Z,14.00
2017-10-18T02:13:17.547Z,13.00
2017-10-18T02:14:18.276Z,15.00
2017-10-18T02:15:19.000Z,15.00
2017-10-18T02:16:19.721Z,17.00
2017-10-18T02:17:20.435Z,15.00
2017-10-18T02:18:21.149Z,15.00
2017-10-18T02:19:21.863Z,14.00
2017-10-18T02:20:22.575Z,17.00
2017-10-18T02:21:23.288Z,17.00
2017-10-18T02:22:24.002Z,16.00
2017-10-18T02:23:24.728Z,14.00
2017-10-18T02:24:25.450Z,12.00
2017-10-18T02:25:26.160Z,14.00
2017-10-18T02:26:26.874Z,17.00
2017-10-18T02:27:27.590Z,15.00
2017-10-18T02:28:28.304Z,14.00
2017-10-18T02:29:29.017Z,16.00
2017-10-18T02:30:29.732Z,17.00
2017-10-18T02:31:30.462Z,15.00
2017-10-18T02:32:31.189Z,17.00
2017-10-18T02:33:31.903Z,15.00
2017-10-18T02:34:32.617Z,15.00
2017-10-18T02:35:33.331Z,15.00
2017-10-18T02:36:34.060Z,14.00
2017-10-18T02:37:34.776Z,15.00
2017-10-18T02:38:35.489Z,18.00
2017-10-18T02:39:36.202Z,14.00
2017-10-18T02:40:36.915Z,16.00
2017-10-18T02:41:37.630Z,14.00
2017-10-18T02:42:38.344Z,14.00
2017-10-18T02:43:39.074Z,14.00
2017-10-18T02:44:39.800Z,16.00
2017-10-18T02:45:40.513Z,19.00
2017-10-18T02:46:41.226Z,15.00
2017-10-18T02:47:41.942Z,15.00
2017-10-18T02:48:42.653Z,14.00
2017-10-18T02:49:43.369Z,16.00
2017-10-18T02:50:44.085Z,15.00
2017-10-18T02:51:44.813Z,16.00
2017-10-18T02:52:45.527Z,16.00
2017-10-18T02:53:46.257Z,14.00
2017-10-18T02:54:46.972Z,15.00
2017-10-18T02:55:47.685Z,15.00
2017-10-18T02:56:48.398Z,13.00
2017-10-18T02:57:49.111Z,15.00
2017-10-18T02:58:49.838Z,13.00
2017-10-18T02:59:50.566Z,13.00
2017-10-18T03:00:51.280Z,16.00
2017-10-18T03:01:51.993Z,16.00
2017-10-18T03:02:52.707Z,15.00
2017-10-18T03:03:53.421Z,15.00
2017-10-18T03:04:54.152Z,15.00
2017-10-18T03:05:54.889Z,17.00
2017-10-18T03:06:55.580Z,15.00
2017-10-18T03:07:56.293Z,13.00
2017-10-18T03:08:57.007Z,14.00
2017-10-18T03:09:57.721Z,17.00
2017-10-18T03:10:58.436Z,16.00
2017-10-18T03:11:59.149Z,12.00
2017-10-18T03:12:59.878Z,15.00
2017-10-18T03:14:00.594Z,14.00
2017-10-18T03:15:01.304Z,14.00
2017-10-18T03:16:02.014Z,17.00
2017-10-18T03:17:02.738Z,16.00
2017-10-18T03:18:03.449Z,15.00
2017-10-18T03:19:04.175Z,15.00
2017-10-18T03:20:04.889Z,14.00
2017-10-18T03:21:05.610Z,14.00
2017-10-18T03:22:06.323Z,16.00
2017-10-18T03:23:07.047Z,15.00
2017-10-18T03:24:07.757Z,13.00
2017-10-18T03:25:08.468Z,15.00
2017-10-18T03:26:09.193Z,13.00
2017-10-18T03:27:09.906Z,15.00
2017-10-18T03:28:10.630Z,14.00
2017-10-18T03:29:11.356Z,17.00
2017-10-18T03:30:12.067Z,14.00
2017-10-18T03:31:12.780Z,13.00
2017-10-18T03:32:13.492Z,15.00
2017-10-18T03:33:14.206Z,13.00
2017-10-18T03:34:14.934Z,15.00
2017-10-18T03:35:15.644Z,16.00
2017-10-18T03:36:16.368Z,16.00
2017-10-18T03:37:17.093Z,18.00
2017-10-18T03:38:17.815Z,17.00
2017-10-18T03:39:18.527Z,17.00
2017-10-18T03:40:19.240Z,14.00
2017-10-18T03:41:19.951Z,15.00
2017-10-18T03:42:20.664Z,16.00
2017-10-18T03:43:21.376Z,16.00
2017-10-18T03:44:22.086Z,15.00
2017-10-18T03:45:22.798Z,14.00
2017-10-18T03:46:23.510Z,15.00
2017-10-18T03:47:24.222Z,14.00
2017-10-18T03:48:24.952Z,16.00
2017-10-18T03:49:25.663Z,16.00
2017-10-18T03:50:26.385Z,16.00
2017-10-18T03:51:27.099Z,15.00
2017-10-18T03:52:27.824Z,18.00
2017-10-18T03:53:28.538Z,17.00
2017-10-18T03:54:29.251Z,15.00
2017-10-18T03:55:29.961Z,15.00
2017-10-18T03:56:30.674Z,15.00
2017-10-18T03:57:31.385Z,17.00
2017-10-18T03:58:32.097Z,15.00
2017-10-18T03:59:32.818Z,14.00
2017-10-18T04:00:33.531Z,17.00
2017-10-18T04:01:34.244Z,15.00
2017-10-18T04:02:34.966Z,14.00
2017-10-18T04:03:35.691Z,18.00
2017-10-18T04:04:36.415Z,14.00
2017-10-18T04:05:37.142Z,15.00
2017-10-18T04:06:37.863Z,15.00
2017-10-18T04:07:38.575Z,14.00
2017-10-18T04:08:39.286Z,14.00
2017-10-18T04:09:39.995Z,15.00
2017-10-18T04:10:40.718Z,17.00
2017-10-18T04:11:41.429Z,15.00
2017-10-18T04:12:42.154Z,12.00
2017-10-18T04:13:42.866Z,14.00
2017-10-18T04:14:43.579Z,14.00
2017-10-18T04:15:44.290Z,16.00
2017-10-18T04:16:45.004Z,13.00
2017-10-18T04:17:45.715Z,15.00
2017-10-18T04:18:46.427Z,16.00
2017-10-18T04:19:47.144Z,16.00
2017-10-18T04:20:47.862Z,17.00
2017-10-18T04:21:48.589Z,16.00
2017-10-18T04:22:49.301Z,18.00
2017-10-18T04:23:50.012Z,19.00
2017-10-18T04:24:50.724Z,18.00
2017-10-18T04:25:51.435Z,18.00
2017-10-18T04:26:52.147Z,19.00
2017-10-18T04:27:52.857Z,19.00
2017-10-18T04:28:53.581Z,19.00
2017-10-18T04:29:54.292Z,21.00
2017-10-18T04:30:55.008Z,17.00
2017-10-18T04:31:55.716Z,23.00
2017-10-18T04:32:56.443Z,23.00
2017-10-18T04:33:57.155Z,20.00
2017-10-18T04:34:57.879Z,19.00
2017-10-18T04:35:58.591Z,20.00
2017-10-18T04:36:59.303Z,22.00
2017-10-18T04:38:00.016Z,23.00
2017-10-18T04:39:00.726Z,19.00
2017-10-18T04:40:01.437Z,22.00
2017-10-18T04:41:02.150Z,22.00
2017-10-18T04:42:02.860Z,21.00
2017-10-18T04:43:03.572Z,24.00
2017-10-18T04:44:04.283Z,23.00
2017-10-18T04:45:04.995Z,21.00
2017-10-18T04:46:05.704Z,19.00
2017-10-18T04:47:06.416Z,22.00
2017-10-18T04:48:07.127Z,23.00
2017-10-18T04:49:07.852Z,20.00
2017-10-18T04:50:08.563Z,23.00
2017-10-18T04:51:09.274Z,22.00
2017-10-18T04:52:09.985Z,23.00
2017-10-18T04:53:10.716Z,20.00
2017-10-18T04:54:11.430Z,22.00
2017-10-18T04:55:12.142Z,21.00
2017-10-18T04:56:12.855Z,24.00
2017-10-18T04:57:13.569Z,26.00
2017-10-18T04:58:14.292Z,23.00
2017-10-18T04:59:15.002Z,24.00
2017-10-18T05:00:15.714Z,24.00
2017-10-18T05:01:16.426Z,29.00
2017-10-18T05:02:17.138Z,22.00
2017-10-18T05:03:17.850Z,22.00
2017-10-18T05:04:18.561Z,25.00
2017-10-18T05:05:19.286Z,23.00
2017-10-18T05:06:20.010Z,28.00
2017-10-18T05:07:20.721Z,20.00
2017-10-18T05:08:21.432Z,23.00
2017-10-18T05:09:22.155Z,20.00
2017-10-18T05:10:22.877Z,21.00
2017-10-18T05:11:23.589Z,21.00
2017-10-18T05:12:24.318Z,22.00
2017-10-18T05:13:25.038Z,18.00
2017-10-18T05:14:25.759Z,21.00
2017-10-18T05:15:26.472Z,24.00
2017-10-18T05:16:27.186Z,24.00
2017-10-18T05:17:27.908Z,24.00
2017-10-18T05:18:28.622Z,19.00
2017-10-18T05:19:29.329Z,23.00
2017-10-18T05:20:30.042Z,25.00
2017-10-18T05:21:30.753Z,26.00
2017-10-18T05:22:31.463Z,22.00
2017-10-18T05:23:32.173Z,28.00
2017-10-18T05:24:32.883Z,24.00
2017-10-18T05:25:33.594Z,28.00
2017-10-18T05:26:34.317Z,31.00
2017-10-18T05:27:35.033Z,24.00
2017-10-18T05:28:35.738Z,29.00
2017-10-18T05:29:36.449Z,29.00
2017-10-18T05:30:37.160Z,28.00
2017-10-18T05:31:37.871Z,27.00
2017-10-18T05:32:38.584Z,26.00
2017-10-18T05:33:39.298Z,31.00
2017-10-18T05:34:40.007Z,28.00
2017-10-18T05:35:40.717Z,28.00
2017-10-18T05:36:41.429Z,25.00
2017-10-18T05:37:42.143Z,26.00
2017-10-18T05:38:42.856Z,26.00
2017-10-18T05:39:43.568Z,28.00
2017-10-18T05:40:44.289Z,28.00
2017-10-18T05:41:45.014Z,28.00
2017-10-18T05:42:45.727Z,35.00
2017-10-18T05:43:46.440Z,35.00
2017-10-18T05:44:47.151Z,32.00
2017-10-18T05:45:47.865Z,36.00
2017-10-18T05:46:48.578Z,36.00
2017-10-18T05:47:49.306Z,30.00
2017-10-18T05:48:50.028Z,32.00
2017-10-18T05:49:50.739Z,36.00
2017-10-18T05:50:51.454Z,34.00
2017-10-18T05:51:52.183Z,33.00
2017-10-18T05:52:52.895Z,34.00
2017-10-18T05:53:53.619Z,35.00
2017-10-18T05:54:54.331Z,35.00
2017-10-18T05:55:55.044Z,36.00
2017-10-18T05:56:55.757Z,36.00
2017-10-18T05:57:56.469Z,33.00
2017-10-18T05:58:57.185Z,34.00
2017-10-18T05:59:57.901Z,34.00
2017-10-18T06:00:58.627Z,32.00
2017-10-18T06:01:59.342Z,35.00
2017-10-18T06:03:00.056Z,34.00
2017-10-18T06:04:00.771Z,34.00
2017-10-18T06:05:01.485Z,35.00
2017-10-18T06:06:02.202Z,37.00
2017-10-18T06:07:02.916Z,36.00
2017-10-18T06:08:03.645Z,37.00
2017-10-18T06:09:04.342Z,36.00
2017-10-18T06:10:05.056Z,38.00
2017-10-18T06:11:05.785Z,33.00
2017-10-18T06:12:06.502Z,34.00
2017-10-18T06:13:07.219Z,34.00
2017-10-18T06:14:07.934Z,39.00
2017-10-18T06:15:08.650Z,39.00
2017-10-18T06:16:09.366Z,40.00
2017-10-18T06:17:10.079Z,37.00
2017-10-18T06:18:10.795Z,37.00
2017-10-18T06:19:11.507Z,40.00
2017-10-18T06:20:12.235Z,37.00
2017-10-18T06:21:12.949Z,42.00
2017-10-18T06:22:13.664Z,41.00
2017-10-18T06:23:14.381Z,39.00
2017-10-18T06:24:15.095Z,43.00
2017-10-18T06:25:15.815Z,42.00
2017-10-18T06:26:16.529Z,45.00
2017-10-18T06:27:17.255Z,42.00
2017-10-18T06:28:17.981Z,42.00
2017-10-18T06:29:18.699Z,43.00
2017-10-18T06:30:19.418Z,43.00
2017-10-18T06:31:20.132Z,44.00
2017-10-18T06:32:20.848Z,47.00
2017-10-18T06:33:21.565Z,46.00
2017-10-18T06:34:22.283Z,42.00
2017-10-18T06:35:23.011Z,40.00
2017-10-18T06:36:23.727Z,47.00
2017-10-18T06:37:24.444Z,47.00
2017-10-18T06:38:25.159Z,42.00
2017-10-18T06:39:25.890Z,45.00
2017-10-18T06:40:26.608Z,49.00
2017-10-18T06:41:27.323Z,45.00
2017-10-18T06:42:28.041Z,42.00
2017-10-18T06:43:28.770Z,48.00
2017-10-18T06:44:29.488Z,47.00
2017-10-18T06:45:30.202Z,46.00
2017-10-18T06:46:30.918Z,43.00
2017-10-18T06:47:31.637Z,45.00
2017-10-18T06:48:32.368Z,43.00
2017-10-18T06:49:33.083Z,42.00
2017-10-18T06:50:33.810Z,41.00
2017-10-18T06:51:34.528Z,44.00
2017-10-18T06:52:35.245Z,46.00
2017-10-18T06:53:35.975Z,43.00
2017-10-18T06:54:36.693Z,44.00
2017-10-18T06:55:37.423Z,42.00
2017-10-18T06:56:38.142Z,48.00
2017-10-18T06:57:38.868Z,42.00
2017-10-18T06:58:39.592Z,40.00
2017-10-18T06:59:40.307Z,47.00
2017-10-18T07:00:41.027Z,46.00
2017-10-18T07:01:41.745Z,42.00
2017-10-18T07:02:42.462Z,46.00
2017-10-18T07:03:43.194Z,48.00
2017-10-18T07:04:43.913Z,46.00
2017-10-18T07:05:44.644Z,45.00
2017-10-18T07:06:45.374Z,42.00
2017-10-18T07:07:46.092Z,42.00
2017-10-18T07:08:46.823Z,42.00
2017-10-18T07:09:47.541Z,40.00
2017-10-18T07:10:48.260Z,45.00
2017-10-18T07:11:48.978Z,43.00
2017-10-18T07:12:49.698Z,44.00
2017-10-18T07:13:50.417Z,42.00
2017-10-18T07:14:51.148Z,41.00
2017-10-18T07:15:51.868Z,47.00
2017-10-18T07:16:52.586Z,42.00
2017-10-18T07:17:53.309Z,47.00
2017-10-18T07:18:54.026Z,44.00
2017-10-18T07:19:54.746Z,45.00
2017-10-18T07:20:55.461Z,40.00
2017-10-18T07:21:56.190Z,39.00
2017-10-18T07:22:56.912Z,40.00
2017-10-18T07:23:57.645Z,45.00
2017-10-18T07:24:58.362Z,42.00
2017-10-18T07:25:59.080Z,40.00
2017-10-18T07:26:59.812Z,39.00
2017-10-18T07:28:00.530Z,40.00
2017-10-18T07:29:01.248Z,42.00
2017-10-18T07:30:01.966Z,36.00
2017-10-18T07:31:02.686Z,38.00
2017-10-18T07:32:03.416Z,40.00
2017-10-18T07:33:04.136Z,41.00
2017-10-18T07:34:04.853Z,38.00
2017-10-18T07:35:05.573Z,39.00
2017-10-18T07:36:06.292Z,43.00
2017-10-18T07:37:07.010Z,37.00
2017-10-18T07:38:07.729Z,38.00
2017-10-18T07:39:08.447Z,37.00
2017-10-18T07:40:09.165Z,41.00
2017-10-18T07:41:09.886Z,38.00
2017-10-18T07:42:10.603Z,38.00
2017-10-18T07:43:11.320Z,38.00
2017-10-18T07:44:12.038Z,34.00
2017-10-18T07:45:12.757Z,38.00
2017-10-18T07:46:13.474Z,39.00
2017-10-18T07:47:14.212Z,36.00
2017-10-18T07:48:14.915Z,37.00
2017-10-18T07:49:15.634Z,40.00
2017-10-18T07:50:16.352Z,39.00
2017-10-18T07:51:17.081Z,37.00
2017-10-18T07:52:17.802Z,35.00
2017-10-18T07:53:18.520Z,42.00
2017-10-18T07:54:19.256Z,41.00
2017-10-18T07:55:19.970Z,41.00
2017-10-18T07:56:20.689Z,41.00
2017-10-18T07:57:21.415Z,35.00
2017-10-18T07:58:22.125Z,40.00
2017-10-18T07:59:22.843Z,45.00
2017-10-18T08:00:23.561Z,43.00
2017-10-18T08:01:24.280Z,43.00
2017-10-18T08:02:25.009Z,38.00
2017-10-18T08:03:25.729Z,41.00
2017-10-18T08:04:26.449Z,40.00
2017-10-18T08:05:27.168Z,43.00
2017-10-18T08:06:27.886Z,42.00
2017-10-18T08:07:28.607Z,43.00
2017-10-18T08:08:29.327Z,45.00
2017-10-18T08:09:30.047Z,43.00
2017-10-18T08:10:30.763Z,40.00
2017-10-18T08:11:31.483Z,41.00
2017-10-18T08:12:32.214Z,43.00
2017-10-18T08:13:32.943Z,42.00
2017-10-18T08:14:33.661Z,44.00
2017-10-18T08:15:34.383Z,46.00
2017-10-18T08:16:35.102Z,45.00
2017-10-18T08:17:35.821Z,47.00
2017-10-18T08:18:36.561Z,48.00
2017-10-18T08:19:37.275Z,37.00
2017-10-18T08:20:37.992Z,43.00
2017-10-18T08:21:38.713Z,45.00
2017-10-18T08:22:39.446Z,43.00
2017-10-18T08:23:40.166Z,44.00
2017-10-18T08:24:40.885Z,46.00
2017-10-18T08:25:41.605Z,43.00
2017-10-18T08:26:42.331Z,43.00
2017-10-18T08:27:43.043Z,38.00
2017-10-18T08:28:43.765Z,47.00
2017-10-18T08:29:44.488Z,47.00
2017-10-18T08:30:45.209Z,44.00
2017-10-18T08:31:45.941Z,44.00
2017-10-18T08:32:46.663Z,40.00
2017-10-18T08:33:47.382Z,44.00
2017-10-18T08:34:48.112Z,46.00
2017-10-18T08:35:48.834Z,42.00
2017-10-18T08:36:49.570Z,39.00
2017-10-18T08:37:50.291Z,45.00
2017-10-18T08:38:51.010Z,40.00
2017-10-18T08:39:51.734Z,42.00
2017-10-18T08:40:52.453Z,38.00
2017-10-18T08:41:53.184Z,44.00
2017-10-18T08:42:53.923Z,45.00
2017-10-18T08:43:54.652Z,37.00
2017-10-18T08:44:55.375Z,47.00
2017-10-18T08:45:56.097Z,44.00
2017-10-18T08:46:56.819Z,38.00
2017-10-18T08:47:57.551Z,39.00
2017-10-18T08:48:58.273Z,39.00
2017-10-18T08:49:59.007Z,41.00
2017-10-18T08:50:59.731Z,38.00
2017-10-18T08:52:00.453Z,38.00
2017-10-18T08:53:01.177Z,38.00
2017-10-18T08:54:01.901Z,36.00
2017-10-18T08:55:02.622Z,34.00
2017-10-18T08:56:03.356Z,40.00
2017-10-18T08:57:04.081Z,40.00
2017-10-18T08:58:04.803Z,34.00
2017-10-18T08:59:05.527Z,34.00
2017-10-18T09:00:06.257Z,38.00
2017-10-18T09:01:06.974Z,36.00
2017-10-18T09:02:07.700Z,37.00
2017-10-18T09:03:08.423Z,35.00
2017-10-18T09:04:09.156Z,35.00
2017-10-18T09:05:09.875Z,37.00
2017-10-18T09:06:10.595Z,36.00
2017-10-18T09:07:11.321Z,37.00
2017-10-18T09:08:12.046Z,37.00
2017-10-18T09:09:12.771Z,34.00
2017-10-18T09:10:13.505Z,36.00
2017-10-18T09:11:14.234Z,35.00
2017-10-18T09:12:14.956Z,33.00
2017-10-18T09:13:15.681Z,38.00
2017-10-18T09:14:16.407Z,36.00
2017-10-18T09:15:17.131Z,34.00
2017-10-18T09:16:17.858Z,35.00
2017-10-18T09:17:18.583Z,39.00
2017-10-18T09:18:19.309Z,33.00
2017-10-18T09:19:20.035Z,37.00
2017-10-18T09:20:20.761Z,36.00
2017-10-18T09:21:21.501Z,33.00
2017-10-18T09:22:22.227Z,37.00
2017-10-18T09:23:22.952Z,36.00
2017-10-18T09:24:23.677Z,33.00
2017-10-18T09:25:24.403Z,34.00
2017-10-18T09:26:25.127Z,33.00
2017-10-18T09:27:25.852Z,30.00
2017-10-18T09:28:26.588Z,32.00
2017-10-18T09:29:27.314Z,33.00
2017-10-18T09:30:28.040Z,33.00
2017-10-18T09:31:28.765Z,36.00
2017-10-18T09:32:29.492Z,35.00
2017-10-18T09:33:30.215Z,33.00
2017-10-18T09:34:30.940Z,37.00
2017-10-18T09:35:31.667Z,34.00
2017-10-18T09:36:32.391Z,33.00
2017-10-18T09:37:33.119Z,35.00
2017-10-18T09:38:33.851Z,33.00
2017-10-18T09:39:34.567Z,35.00
2017-10-18T09:40:35.306Z,36.00
2017-10-18T09:41:36.032Z,33.00
2017-10-18T09:42:36.758Z,33.00
2017-10-18T09:43:37.483Z,36.00
2017-10-18T09:44:38.210Z,35.00
2017-10-18T09:45:38.937Z,37.00
2017-10-18T09:46:39.663Z,41.00
2017-10-18T09:47:40.390Z,40.00
2017-10-18T09:48:41.116Z,35.00
2017-10-18T09:49:41.843Z,37.00
2017-10-18T09:50:42.572Z,32.00
2017-10-18T09:51:43.310Z,36.00
2017-10-18T09:52:44.038Z,37.00
2017-10-18T09:53:44.764Z,39.00
2017-10-18T09:54:45.492Z,39.00
2017-10-18T09:55:46.217Z,39.00
2017-10-18T09:56:46.941Z,38.00
2017-10-18T09:57:47.668Z,38.00
2017-10-18T09:58:48.395Z,36.00
2017-10-18T09:59:49.137Z,42.00
2017-10-18T10:00:49.864Z,39.00
2017-10-18T10:01:50.592Z,41.00
2017-10-18T10:02:51.318Z,40.00
2017-10-18T10:03:52.046Z,40.00
2017-10-18T10:04:52.776Z,40.00
2017-10-18T10:05:53.513Z,38.00
2017-10-18T10:06:54.243Z,35.00
2017-10-18T10:07:54.989Z,33.00
2017-10-18T10:08:55.698Z,36.00
2017-10-18T10:09:56.428Z,36.00
2017-10-18T10:10:57.172Z,33.00
2017-10-18T10:11:57.905Z,34.00
2017-10-18T10:12:58.651Z,31.00
2017-10-18T10:13:59.387Z,30.00
2017-10-18T10:15:00.120Z,34.00
2017-10-18T10:16:00.852Z,32.00
2017-10-18T10:17:01.589Z,34.00
2017-10-18T10:18:02.323Z,32.00
2017-10-18T10:19:03.056Z,33.00
2017-10-18T10:20:03.790Z,34.00
2017-10-18T10:21:04.528Z,35.00
2017-10-18T10:22:05.265Z,34.00
2017-10-18T10:23:05.995Z,32.00
2017-10-18T10:24:06.731Z,32.00
2017-10-18T10:25:07.457Z,32.00
2017-10-18T10:26:08.193Z,30.00
2017-10-18T10:27:08.936Z,30.00
2017-10-18T10:28:09.668Z,29.00
2017-10-18T10:29:10.401Z,34.00
2017-10-18T10:30:11.145Z,32.00
2017-10-18T10:31:11.879Z,27.00
2017-10-18T10:32:12.611Z,25.00
2017-10-18T10:33:13.344Z,25.00
2017-10-18T10:34:14.079Z,26.00
2017-10-18T10:35:14.824Z,27.00
2017-10-18T10:36:15.558Z,27.00
2017-10-18T10:37:16.292Z,27.00
2017-10-18T10:38:17.033Z,30.00
2017-10-18T10:39:17.764Z,30.00
2017-10-18T10:40:18.498Z,22.00
2017-10-18T10:41:19.230Z,28.00
2017-10-18T10:42:19.965Z,29.00
2017-10-18T10:43:20.700Z,25.00
2017-10-18T10:44:21.434Z,30.00
2017-10-18T10:45:22.168Z,26.00
2017-10-18T10:46:22.902Z,29.00
2017-10-18T10:47:23.636Z,28.00
2017-10-18T10:48:24.374Z,30.00
2017-10-18T10:49:25.127Z,30.00
2017-10-18T10:50:25.843Z,25.00
2017-10-18T10:51:26.578Z,25.00
2017-10-18T10:52:27.313Z,30.00
2017-10-18T10:53:28.049Z,31.00
2017-10-18T10:54:28.783Z,27.00
2017-10-18T10:55:29.518Z,28.00
2017-10-18T10:56:30.254Z,26.00
2017-10-18T10:57:30.989Z,27.00
2017-10-18T10:58:31.726Z,25.00
2017-10-18T10:59:32.461Z,26.00
2017-10-18T11:00:33.196Z,29.00
2017-10-18T11:01:33.931Z,29.00
2017-10-18T11:02:34.669Z,30.00
2017-10-18T11:03:35.418Z,30.00
2017-10-18T11:04:36.154Z,28.00
2017-10-18T11:05:36.889Z,25.00
2017-10-18T11:06:37.639Z,27.00
2017-10-18T11:07:38.376Z,24.00
2017-10-18T11:08:39.111Z,24.00
2017-10-18T11:09:39.847Z,25.00
2017-10-18T11:10:40.583Z,25.00
2017-10-18T11:11:41.319Z,25.00
2017-10-18T11:12:42.061Z,21.00
2017-10-18T11:13:42.796Z,20.00
2017-10-18T11:14:43.533Z,23.00
2017-10-18T11:15:44.266Z,22.00
2017-10-18T11:16:45.012Z,21.00
2017-10-18T11:17:45.750Z,21.00
2017-10-18T11:18:46.490Z,19.00
2017-10-18T11:19:47.230Z,22.00
2017-10-18T11:20:47.969Z,25.00
2017-10-18T11:21:48.712Z,18.00
2017-10-18T11:22:49.451Z,21.00
2017-10-18T11:23:50.190Z,18.00
2017-10-18T11:24:50.932Z,22.00
2017-10-18T11:25:51.673Z,21.00
2017-10-18T11:26:52.418Z,20.00
2017-10-18T11:27:53.158Z,18.00
2017-10-18T11:28:53.900Z,16.00
2017-10-18T11:29:54.643Z,16.00
2017-10-18T11:30:55.399Z,20.00
2017-10-18T11:31:56.140Z,21.00
2017-10-18T11:32:56.899Z,18.00
2017-10-18T11:33:57.645Z,16.00
2017-10-18T11:34:58.385Z,20.00
2017-10-18T11:35:59.126Z,15.00
2017-10-18T11:36:59.883Z,20.00
2017-10-18T11:38:00.620Z,19.00
2017-10-18T11:39:01.357Z,20.00
2017-10-18T11:40:02.099Z,18.00
2017-10-18T11:41:02.841Z,18.00
2017-10-18T11:42:03.582Z,18.00
2017-10-18T11:43:04.326Z,20.00
2017-10-18T11:44:05.071Z,18.00
2017-10-18T11:45:05.810Z,17.00
2017-10-18T11:46:06.553Z,18.00
2017-10-18T11:47:07.293Z,16.00
2017-10-18T11:48:08.053Z,17.00
2017-10-18T11:49:08.805Z,18.00
2017-10-18T11:50:09.549Z,17.00
2017-10-18T11:51:10.294Z,17.00
2017-10-18T11:52:11.046Z,19.00
2017-10-18T11:53:11.799Z,21.00
2017-10-18T11:54:12.540Z,15.00
2017-10-18T11:55:13.284Z,15.00
2017-10-18T11:56:14.035Z,14.00
2017-10-18T11:57:14.776Z,17.00
2017-10-18T11:58:15.526Z,14.00
2017-10-18T11:59:16.267Z,13.00
2017-10-18T12:00:17.007Z,13.00
2017-10-18T12:01:17.748Z,13.00
2017-10-18T12:02:18.495Z,14.00
2017-10-18T12:03:19.240Z,14.00
2017-10-18T12:04:19.993Z,16.00
2017-10-18T12:05:20.733Z,14.00
2017-10-18T12:06:21.485Z,13.00
2017-10-18T12:07:22.223Z,14.00
2017-10-18T12:08:22.959Z,15.00
2017-10-18T12:09:23.702Z,15.00
2017-10-18T12:10:24.454Z,15.00
2017-10-18T12:11:25.195Z,16.00
2017-10-18T12:12:25.940Z,15.00
2017-10-18T12:13:26.685Z,14.00
2017-10-18T12:14:27.424Z,13.00
2017-10-18T12:15:28.167Z,16.00
2017-10-18T12:16:28.901Z,17.00
2017-10-18T12:17:29.639Z,16.00
2017-10-18T12:18:30.384Z,15.00
2017-10-18T12:19:31.123Z,17.00
2017-10-18T12:20:31.874Z,16.00
2017-10-18T12:21:32.626Z,15.00
2017-10-18T12:22:33.365Z,17.00
2017-10-18T12:23:34.116Z,15.00
2017-10-18T12:24:34.856Z,18.00
2017-10-18T12:25:35.599Z,17.00
2017-10-18T12:26:36.340Z,18.00
2017-10-18T12:27:37.089Z,17.00
2017-10-18T12:28:37.827Z,14.00
2017-10-18T12:29:38.564Z,15.00
2017-10-18T12:30:39.305Z,14.00
2017-10-18T12:31:40.039Z,16.00
2017-10-18T12:32:40.779Z,17.00
2017-10-18T12:33:41.516Z,17.00
2017-10-18T12:34:42.270Z,18.00
2017-10-18T12:35:43.017Z,19.00
2017-10-18T12:36:43.757Z,15.00
2017-10-18T12:37:44.507Z,15.00
2017-10-18T12:38:45.247Z,15.00
2017-10-18T12:39:45.982Z,18.00
2017-10-18T12:40:46.730Z,18.00
2017-10-18T12:41:47.464Z,18.00
2017-10-18T12:42:48.201Z,18.00
2017-10-18T12:43:48.949Z,17.00
2017-10-18T12:44:49.691Z,16.00
2017-10-18T12:45:50.430Z,16.00
2017-10-18T12:46:51.166Z,16.00
2017-10-18T12:47:51.908Z,16.00
2017-10-18T12:48:52.660Z,15.00
2017-10-18T12:49:53.399Z,16.00
2017-10-18T12:50:54.137Z,15.00
2017-10-18T12:51:54.884Z,16.00
2017-10-18T12:52:55.621Z,17.00
2017-10-18T12:53:56.363Z,16.00
2017-10-18T12:54:57.109Z,14.00
2017-10-18T12:55:57.857Z,17.00
2017-10-18T12:56:58.597Z,15.00
2017-10-18T12:57:59.336Z,15.00
2017-10-18T12:59:00.080Z,17.00
2017-10-18T13:00:00.829Z,16.00
2017-10-18T13:01:01.568Z,17.00
2017-10-18T13:02:02.308Z,17.00